Glenrock, WY (82637)

9:38 PM MDT on July 29, 2016 (GMT -0600)
WYDOT | | Change Station

Elev 5064 ft 42.84 °N, 105.86 °W | Updated 37 minutes ago

Overcast
Overcast
69.0 °F
Feels Like 69.0 °F
N
15.0
Wind Variable Wind from ENE
Gusts 19.0 mph

Today
High -- | Low -- °F
--% Chance of Precip.
Yesterday
High -- | Low -- °F
Precip. -- in
Pressure 30.09 in
Visibility 10.0 miles
Clouds Scattered Clouds 9000 ft
Overcast 11000 ft
Dew Point 53.0 °F
Humidity 56%
Rainfall in
Snow Depth Not available.
5:52 AM 8:26 PM
Waning Crescent, 16% visible
SPECI KDGW 300311Z AUTO 12010KT 10SM -RA SCT090 OVC110 19/13 A3009 RMK AO2 WSHFT 0257 LTG DSNT N AND SE RAB0255 P0001 T01940133
Pressure 30.09 in
Visibility 10.0 miles
Clouds Scattered Clouds 9000 ft
Overcast 11000 ft
Dew Point 53.0 °F
Humidity 56%
Rainfall in
Snow Depth Not available.
5:52 AM 8:26 PM
Waning Crescent, 16% visible
SPECI KDGW 300311Z AUTO 12010KT 10SM -RA SCT090 OVC110 19/13 A3009 RMK AO2 WSHFT 0257 LTG DSNT N AND SE RAB0255 P0001 T01940133

10-Day Weather Forecast

Almanac

Astronomy

Jul. 29, 2016 Rise Set
Actual Time
Civil Twilight
Nautical Twilight
Astronomical Twilight
Moon
Length of Visible Light
Length of Day
Tomorrow will be .
, % of the Moon is Illuminated

Today's Extremes

State Highs State Lows

Community

WunderPhotos

Upload Photos

1,928,500 photos uploaded!

WunderBlog® & News

Nearby

Air Quality

  Air Quality AQ Index Pollutant
Not available.

Snow Depth

Station Depth Elevation

Earthquake Activity

City Distance Mag. Time & Date
Minimum magnitude displayed is 2.5.

Coastal Water Temperatures

Place Temperature

Stations

Nearby Weather Stations

Station Location Temp. Windchill Dew Point Humidity Wind Precip. Elev Updated Type
                   

Watches & Warnings

There are currently no watches in effect.